sensor_id;sensor_type;location;lat;lon;timestamp;temperature;humidity
65854;DHT22;52627;48.838;2.402;2023-11-21T00:02:08;11.73;82.73
65854;DHT22;52627;48.838;2.402;2023-11-21T00:04:36;11.74;82.77
65854;DHT22;52627;48.838;2.402;2023-11-21T00:07:04;11.74;82.80
65854;DHT22;52627;48.838;2.402;2023-11-21T00:09:33;11.75;82.77
65854;DHT22;52627;48.838;2.402;2023-11-21T00:12:02;11.75;82.78
65854;DHT22;52627;48.838;2.402;2023-11-21T00:14:30;11.77;82.80
65854;DHT22;52627;48.838;2.402;2023-11-21T00:16:58;11.76;82.78
65854;DHT22;52627;48.838;2.402;2023-11-21T00:19:27;11.76;82.79
65854;DHT22;52627;48.838;2.402;2023-11-21T00:21:55;11.76;82.76
65854;DHT22;52627;48.838;2.402;2023-11-21T00:24:25;11.76;82.78
65854;DHT22;52627;48.838;2.402;2023-11-21T00:26:53;11.78;82.80
65854;DHT22;52627;48.838;2.402;2023-11-21T00:29:20;11.79;82.80
65854;DHT22;52627;48.838;2.402;2023-11-21T00:31:48;11.79;82.80
65854;DHT22;52627;48.838;2.402;2023-11-21T00:34:15;11.79;82.76
65854;DHT22;52627;48.838;2.402;2023-11-21T00:36:43;11.79;82.73
65854;DHT22;52627;48.838;2.402;2023-11-21T00:39:11;11.79;82.79
65854;DHT22;52627;48.838;2.402;2023-11-21T00:41:39;11.80;82.77
65854;DHT22;52627;48.838;2.402;2023-11-21T00:44:06;11.81;82.75
65854;DHT22;52627;48.838;2.402;2023-11-21T00:46:34;11.80;82.71
65854;DHT22;52627;48.838;2.402;2023-11-21T00:49:02;11.80;82.72
65854;DHT22;52627;48.838;2.402;2023-11-21T00:51:31;11.81;82.71
65854;DHT22;52627;48.838;2.402;2023-11-21T00:53:58;11.80;82.70
65854;DHT22;52627;48.838;2.402;2023-11-21T00:56:26;11.79;82.70
65854;DHT22;52627;48.838;2.402;2023-11-21T00:58:54;11.77;82.67
65854;DHT22;52627;48.838;2.402;2023-11-21T01:01:22;11.77;82.68
65854;DHT22;52627;48.838;2.402;2023-11-21T01:03:50;11.76;82.68
65854;DHT22;52627;48.838;2.402;2023-11-21T01:06:18;11.75;82.66
65854;DHT22;52627;48.838;2.402;2023-11-21T01:08:46;11.76;82.67
65854;DHT22;52627;48.838;2.402;2023-11-21T01:11:14;11.74;82.61
65854;DHT22;52627;48.838;2.402;2023-11-21T01:13:42;11.72;82.60
65854;DHT22;52627;48.838;2.402;2023-11-21T01:16:09;11.71;82.60
65854;DHT22;52627;48.838;2.402;2023-11-21T01:18:37;11.70;82.60
65854;DHT22;52627;48.838;2.402;2023-11-21T01:21:05;11.68;82.60
65854;DHT22;52627;48.838;2.402;2023-11-21T01:23:33;11.68;82.60
65854;DHT22;52627;48.838;2.402;2023-11-21T01:26:00;11.67;82.60
65854;DHT22;52627;48.838;2.402;2023-11-21T01:28:28;11.67;82.60
65854;DHT22;52627;48.838;2.402;2023-11-21T01:30:55;11.67;82.61
65854;DHT22;52627;48.838;2.402;2023-11-21T01:33:23;11.65;82.60
65854;DHT22;52627;48.838;2.402;2023-11-21T01:35:52;11.64;82.60
65854;DHT22;52627;48.838;2.402;2023-11-21T01:38:22;11.61;82.57
65854;DHT22;52627;48.838;2.402;2023-11-21T01:40:50;11.61;82.53
65854;DHT22;52627;48.838;2.402;2023-11-21T01:43:17;11.59;82.52
65854;DHT22;52627;48.838;2.402;2023-11-21T01:45:45;11.58;82.50
65854;DHT22;52627;48.838;2.402;2023-11-21T01:48:13;11.57;82.50
65854;DHT22;52627;48.838;2.402;2023-11-21T01:50:41;11.56;82.51
65854;DHT22;52627;48.838;2.402;2023-11-21T01:53:11;11.56;82.50
65854;DHT22;52627;48.838;2.402;2023-11-21T01:55:43;11.55;82.50
65854;DHT22;52627;48.838;2.402;2023-11-21T01:58:12;11.55;82.51
65854;DHT22;52627;48.838;2.402;2023-11-21T02:00:41;11.55;82.56
65854;DHT22;52627;48.838;2.402;2023-11-21T02:03:09;11.55;82.52
65854;DHT22;52627;48.838;2.402;2023-11-21T02:05:37;11.55;82.53
65854;DHT22;52627;48.838;2.402;2023-11-21T02:08:05;11.54;82.52
65854;DHT22;52627;48.838;2.402;2023-11-21T02:10:32;11.53;82.50
65854;DHT22;52627;48.838;2.402;2023-11-21T02:13:00;11.53;82.50
65854;DHT22;52627;48.838;2.402;2023-11-21T02:15:30;11.53;82.50
65854;DHT22;52627;48.838;2.402;2023-11-21T02:17:58;11.53;82.52
65854;DHT22;52627;48.838;2.402;2023-11-21T02:20:26;11.53;82.50
65854;DHT22;52627;48.838;2.402;2023-11-21T02:22:56;11.53;82.50
65854;DHT22;52627;48.838;2.402;2023-11-21T02:25:26;11.53;82.50
65854;DHT22;52627;48.838;2.402;2023-11-21T02:27:56;11.53;82.50
65854;DHT22;52627;48.838;2.402;2023-11-21T02:30:29;11.52;82.47
65854;DHT22;52627;48.838;2.402;2023-11-21T02:32:59;11.54;82.50
65854;DHT22;52627;48.838;2.402;2023-11-21T02:35:29;11.54;82.50
65854;DHT22;52627;48.838;2.402;2023-11-21T02:37:59;11.54;82.50
65854;DHT22;52627;48.838;2.402;2023-11-21T02:40:27;11.56;82.51
65854;DHT22;52627;48.838;2.402;2023-11-21T02:42:54;11.58;82.57
65854;DHT22;52627;48.838;2.402;2023-11-21T02:45:22;11.59;82.60
65854;DHT22;52627;48.838;2.402;2023-11-21T02:47:51;11.61;82.60
65854;DHT22;52627;48.838;2.402;2023-11-21T02:50:21;11.64;82.60
65854;DHT22;52627;48.838;2.402;2023-11-21T02:52:50;11.64;82.60
65854;DHT22;52627;48.838;2.402;2023-11-21T02:55:26;11.65;82.57
65854;DHT22;52627;48.838;2.402;2023-11-21T02:57:54;11.65;82.50
65854;DHT22;52627;48.838;2.402;2023-11-21T03:00:25;11.65;82.50
65854;DHT22;52627;48.838;2.402;2023-11-21T03:02:54;11.66;82.49
65854;DHT22;52627;48.838;2.402;2023-11-21T03:05:23;11.66;82.46
65854;DHT22;52627;48.838;2.402;2023-11-21T03:07:50;11.64;82.40
65854;DHT22;52627;48.838;2.402;2023-11-21T03:10:18;11.64;82.41
65854;DHT22;52627;48.838;2.402;2023-11-21T03:12:46;11.64;82.43
65854;DHT22;52627;48.838;2.402;2023-11-21T03:15:14;11.64;82.40
65854;DHT22;52627;48.838;2.402;2023-11-21T03:17:41;11.64;82.40
65854;DHT22;52627;48.838;2.402;2023-11-21T03:20:09;11.64;82.40
65854;DHT22;52627;48.838;2.402;2023-11-21T03:22:38;11.64;82.40
65854;DHT22;52627;48.838;2.402;2023-11-21T03:25:07;11.63;82.37
65854;DHT22;52627;48.838;2.402;2023-11-21T03:27:38;11.62;82.35
65854;DHT22;52627;48.838;2.402;2023-11-21T03:30:07;11.61;82.35
65854;DHT22;52627;48.838;2.402;2023-11-21T03:32:36;11.61;82.30
65854;DHT22;52627;48.838;2.402;2023-11-21T03:35:04;11.60;82.30
65854;DHT22;52627;48.838;2.402;2023-11-21T03:37:33;11.60;82.30
65854;DHT22;52627;48.838;2.402;2023-11-21T03:40:01;11.60;82.30
65854;DHT22;52627;48.838;2.402;2023-11-21T03:42:31;11.59;82.30
65854;DHT22;52627;48.838;2.402;2023-11-21T03:44:59;11.60;82.33
65854;DHT22;52627;48.838;2.402;2023-11-21T03:47:27;11.60;82.32
65854;DHT22;52627;48.838;2.402;2023-11-21T03:49:55;11.61;82.33
65854;DHT22;52627;48.838;2.402;2023-11-21T03:52:24;11.61;82.31
65854;DHT22;52627;48.838;2.402;2023-11-21T03:54:52;11.62;82.31
65854;DHT22;52627;48.838;2.402;2023-11-21T03:57:19;11.62;82.36
65854;DHT22;52627;48.838;2.402;2023-11-21T03:59:48;11.63;82.33
65854;DHT22;52627;48.838;2.402;2023-11-21T04:02:15;11.65;82.36
65854;DHT22;52627;48.838;2.402;2023-11-21T04:04:43;11.66;82.36
65854;DHT22;52627;48.838;2.402;2023-11-21T04:07:11;11.65;82.32
65854;DHT22;52627;48.838;2.402;2023-11-21T04:09:40;11.65;82.33
65854;DHT22;52627;48.838;2.402;2023-11-21T04:12:08;11.65;82.31
65854;DHT22;52627;48.838;2.402;2023-11-21T04:14:36;11.64;82.30
65854;DHT22;52627;48.838;2.402;2023-11-21T04:17:04;11.63;82.30
65854;DHT22;52627;48.838;2.402;2023-11-21T04:19:32;11.64;82.30
65854;DHT22;52627;48.838;2.402;2023-11-21T04:21:59;11.64;82.35
65854;DHT22;52627;48.838;2.402;2023-11-21T04:24:29;11.65;82.39
65854;DHT22;52627;48.838;2.402;2023-11-21T04:26:57;11.64;82.39
65854;DHT22;52627;48.838;2.402;2023-11-21T04:29:24;11.64;82.35
65854;DHT22;52627;48.838;2.402;2023-11-21T04:31:52;11.65;82.36
65854;DHT22;52627;48.838;2.402;2023-11-21T04:34:19;11.63;82.36
65854;DHT22;52627;48.838;2.402;2023-11-21T04:36:47;11.62;82.32
65854;DHT22;52627;48.838;2.402;2023-11-21T04:39:14;11.61;82.35
65854;DHT22;52627;48.838;2.402;2023-11-21T04:41:42;11.61;82.39
65854;DHT22;52627;48.838;2.402;2023-11-21T04:44:10;11.61;82.40
65854;DHT22;52627;48.838;2.402;2023-11-21T04:46:37;11.61;82.40
65854;DHT22;52627;48.838;2.402;2023-11-21T04:49:05;11.60;82.40
65854;DHT22;52627;48.838;2.402;2023-11-21T04:51:33;11.62;82.44
65854;DHT22;52627;48.838;2.402;2023-11-21T04:54:00;11.62;82.49
65854;DHT22;52627;48.838;2.402;2023-11-21T04:56:28;11.64;82.50
65854;DHT22;52627;48.838;2.402;2023-11-21T04:58:56;11.65;82.50
65854;DHT22;52627;48.838;2.402;2023-11-21T05:01:23;11.67;82.51
65854;DHT22;52627;48.838;2.402;2023-11-21T05:03:51;11.67;82.53
65854;DHT22;52627;48.838;2.402;2023-11-21T05:06:19;11.66;82.58
65854;DHT22;52627;48.838;2.402;2023-11-21T05:08:47;11.65;82.60
65854;DHT22;52627;48.838;2.402;2023-11-21T05:11:25;11.66;82.61
65854;DHT22;52627;48.838;2.402;2023-11-21T05:13:54;11.66;82.69
65854;DHT22;52627;48.838;2.402;2023-11-21T05:16:25;11.67;82.70
65854;DHT22;52627;48.838;2.402;2023-11-21T05:18:55;11.68;82.74
65854;DHT22;52627;48.838;2.402;2023-11-21T05:21:27;11.67;82.78
65854;DHT22;52627;48.838;2.402;2023-11-21T05:23:57;11.67;82.80
65854;DHT22;52627;48.838;2.402;2023-11-21T05:26:24;11.67;82.84
65854;DHT22;52627;48.838;2.402;2023-11-21T05:28:52;11.68;82.89
65854;DHT22;52627;48.838;2.402;2023-11-21T05:31:19;11.66;82.88
65854;DHT22;52627;48.838;2.402;2023-11-21T05:33:47;11.67;82.91
65854;DHT22;52627;48.838;2.402;2023-11-21T05:36:15;11.67;82.97
65854;DHT22;52627;48.838;2.402;2023-11-21T05:38:42;11.67;83.00
65854;DHT22;52627;48.838;2.402;2023-11-21T05:41:10;11.68;83.02
65854;DHT22;52627;48.838;2.402;2023-11-21T05:43:40;11.70;83.09
65854;DHT22;52627;48.838;2.402;2023-11-21T05:46:08;11.73;83.10
65854;DHT22;52627;48.838;2.402;2023-11-21T05:48:36;11.74;83.10
65854;DHT22;52627;48.838;2.402;2023-11-21T05:51:07;11.76;83.12
65854;DHT22;52627;48.838;2.402;2023-11-21T05:53:35;11.76;83.18
65854;DHT22;52627;48.838;2.402;2023-11-21T05:56:03;11.76;83.20
65854;DHT22;52627;48.838;2.402;2023-11-21T05:58:31;11.76;83.20
65854;DHT22;52627;48.838;2.402;2023-11-21T06:00:59;11.77;83.24
65854;DHT22;52627;48.838;2.402;2023-11-21T06:03:26;11.78;83.29
65854;DHT22;52627;48.838;2.402;2023-11-21T06:05:54;11.78;83.30
65854;DHT22;52627;48.838;2.402;2023-11-21T06:08:21;11.79;83.39
65854;DHT22;52627;48.838;2.402;2023-11-21T06:10:49;11.79;83.40
65854;DHT22;52627;48.838;2.402;2023-11-21T06:13:16;11.78;83.40
65854;DHT22;52627;48.838;2.402;2023-11-21T06:15:47;11.80;83.47
65854;DHT22;52627;48.838;2.402;2023-11-21T06:18:15;11.80;83.51
65854;DHT22;52627;48.838;2.402;2023-11-21T06:20:42;11.81;83.56
65854;DHT22;52627;48.838;2.402;2023-11-21T06:23:10;11.81;83.60
65854;DHT22;52627;48.838;2.402;2023-11-21T06:25:38;11.81;83.65
65854;DHT22;52627;48.838;2.402;2023-11-21T06:28:06;11.82;83.71
65854;DHT22;52627;48.838;2.402;2023-11-21T06:30:34;11.82;83.76
65854;DHT22;52627;48.838;2.402;2023-11-21T06:33:01;11.83;83.82
65854;DHT22;52627;48.838;2.402;2023-11-21T06:35:29;11.83;83.88
65854;DHT22;52627;48.838;2.402;2023-11-21T06:37:59;11.84;83.93
65854;DHT22;52627;48.838;2.402;2023-11-21T06:40:27;11.85;84.00
65854;DHT22;52627;48.838;2.402;2023-11-21T06:42:55;11.84;84.01
65854;DHT22;52627;48.838;2.402;2023-11-21T06:45:36;11.83;84.09
65854;DHT22;52627;48.838;2.402;2023-11-21T06:48:12;11.85;84.15
65854;DHT22;52627;48.838;2.402;2023-11-21T06:51:09;11.87;84.21
65854;DHT22;52627;48.838;2.402;2023-11-21T06:53:46;11.88;84.27
65854;DHT22;52627;48.838;2.402;2023-11-21T06:56:17;11.89;84.29
65854;DHT22;52627;48.838;2.402;2023-11-21T06:58:45;11.91;84.31
65854;DHT22;52627;48.838;2.402;2023-11-21T07:01:13;11.94;84.40
65854;DHT22;52627;48.838;2.402;2023-11-21T07:03:55;11.95;84.43
65854;DHT22;52627;48.838;2.402;2023-11-21T07:06:23;11.96;84.50
65854;DHT22;52627;48.838;2.402;2023-11-21T07:08:51;11.94;84.55
65854;DHT22;52627;48.838;2.402;2023-11-21T07:11:20;11.91;84.61
65854;DHT22;52627;48.838;2.402;2023-11-21T07:13:50;11.92;84.69
65854;DHT22;52627;48.838;2.402;2023-11-21T07:16:28;11.91;84.78
65854;DHT22;52627;48.838;2.402;2023-11-21T07:18:58;11.92;84.80
65854;DHT22;52627;48.838;2.402;2023-11-21T07:21:25;11.91;84.83
65854;DHT22;52627;48.838;2.402;2023-11-21T07:23:53;11.89;84.89
65854;DHT22;52627;48.838;2.402;2023-11-21T07:26:20;11.89;84.97
65854;DHT22;52627;48.838;2.402;2023-11-21T07:28:48;11.90;85.00
65854;DHT22;52627;48.838;2.402;2023-11-21T07:31:15;11.90;85.04
65854;DHT22;52627;48.838;2.402;2023-11-21T07:33:43;11.88;85.10
65854;DHT22;52627;48.838;2.402;2023-11-21T07:36:26;11.87;85.10
65854;DHT22;52627;48.838;2.402;2023-11-21T07:38:57;11.89;85.19
65854;DHT22;52627;48.838;2.402;2023-11-21T07:41:24;11.90;85.20
65854;DHT22;52627;48.838;2.402;2023-11-21T07:43:57;11.92;85.20
65854;DHT22;52627;48.838;2.402;2023-11-21T07:46:26;11.93;85.20
65854;DHT22;52627;48.838;2.402;2023-11-21T07:48:54;11.94;85.22
65854;DHT22;52627;48.838;2.402;2023-11-21T07:51:22;11.95;85.30
65854;DHT22;52627;48.838;2.402;2023-11-21T07:53:50;11.96;85.30
65854;DHT22;52627;48.838;2.402;2023-11-21T07:56:17;11.97;85.30
65854;DHT22;52627;48.838;2.402;2023-11-21T07:58:45;11.97;85.33
65854;DHT22;52627;48.838;2.402;2023-11-21T08:01:12;11.96;85.36
65854;DHT22;52627;48.838;2.402;2023-11-21T08:03:40;11.95;85.40
65854;DHT22;52627;48.838;2.402;2023-11-21T08:06:08;11.97;85.40
65854;DHT22;52627;48.838;2.402;2023-11-21T08:08:50;11.98;85.46
65854;DHT22;52627;48.838;2.402;2023-11-21T08:11:18;11.98;85.50
65854;DHT22;52627;48.838;2.402;2023-11-21T08:13:49;11.98;85.50
65854;DHT22;52627;48.838;2.402;2023-11-21T08:16:21;11.98;85.51
65854;DHT22;52627;48.838;2.402;2023-11-21T08:18:51;12.00;85.58
65854;DHT22;52627;48.838;2.402;2023-11-21T08:21:22;12.02;85.59
65854;DHT22;52627;48.838;2.402;2023-11-21T08:23:56;12.05;85.60
65854;DHT22;52627;48.838;2.402;2023-11-21T08:26:23;12.05;85.60
65854;DHT22;52627;48.838;2.402;2023-11-21T08:28:51;12.06;85.59
65854;DHT22;52627;48.838;2.402;2023-11-21T08:31:24;12.08;85.60
65854;DHT22;52627;48.838;2.402;2023-11-21T08:33:55;12.09;85.60
65854;DHT22;52627;48.838;2.402;2023-11-21T08:36:23;12.11;85.60
65854;DHT22;52627;48.838;2.402;2023-11-21T08:38:52;12.13;85.61
65854;DHT22;52627;48.838;2.402;2023-11-21T08:41:19;12.14;85.60
65854;DHT22;52627;48.838;2.402;2023-11-21T08:43:50;12.16;85.62
65854;DHT22;52627;48.838;2.402;2023-11-21T08:46:19;12.18;85.62
65854;DHT22;52627;48.838;2.402;2023-11-21T08:48:47;12.19;85.63
65854;DHT22;52627;48.838;2.402;2023-11-21T08:51:15;12.20;85.64
65854;DHT22;52627;48.838;2.402;2023-11-21T08:53:43;12.20;85.63
65854;DHT22;52627;48.838;2.402;2023-11-21T08:56:14;12.21;85.63
65854;DHT22;52627;48.838;2.402;2023-11-21T08:58:42;12.23;85.70
65854;DHT22;52627;48.838;2.402;2023-11-21T09:01:10;12.26;85.70
65854;DHT22;52627;48.838;2.402;2023-11-21T09:03:39;12.29;85.70
65854;DHT22;52627;48.838;2.402;2023-11-21T09:06:07;12.32;85.70
65854;DHT22;52627;48.838;2.402;2023-11-21T09:08:37;12.34;85.70
65854;DHT22;52627;48.838;2.402;2023-11-21T09:11:05;12.35;85.70
65854;DHT22;52627;48.838;2.402;2023-11-21T09:13:33;12.37;85.70
65854;DHT22;52627;48.838;2.402;2023-11-21T09:16:02;12.39;85.70
65854;DHT22;52627;48.838;2.402;2023-11-21T09:18:29;12.40;85.70
65854;DHT22;52627;48.838;2.402;2023-11-21T09:20:58;12.42;85.70
65854;DHT22;52627;48.838;2.402;2023-11-21T09:23:26;12.43;85.70
65854;DHT22;52627;48.838;2.402;2023-11-21T09:25:53;12.44;85.70
65854;DHT22;52627;48.838;2.402;2023-11-21T09:28:24;12.45;85.70
65854;DHT22;52627;48.838;2.402;2023-11-21T09:30:52;12.48;85.70
65854;DHT22;52627;48.838;2.402;2023-11-21T09:33:20;12.52;85.70
65854;DHT22;52627;48.838;2.402;2023-11-21T09:35:49;12.56;85.70
65854;DHT22;52627;48.838;2.402;2023-11-21T09:38:18;12.58;85.73
65854;DHT22;52627;48.838;2.402;2023-11-21T09:40:46;12.60;85.73
65854;DHT22;52627;48.838;2.402;2023-11-21T09:43:16;12.64;85.70
65854;DHT22;52627;48.838;2.402;2023-11-21T09:45:46;12.65;85.70
65854;DHT22;52627;48.838;2.402;2023-11-21T09:48:15;12.68;85.70
65854;DHT22;52627;48.838;2.402;2023-11-21T09:50:44;12.71;85.65
65854;DHT22;52627;48.838;2.402;2023-11-21T09:53:21;12.76;85.60
65854;DHT22;52627;48.838;2.402;2023-11-21T09:55:52;12.83;85.60
65854;DHT22;52627;48.838;2.402;2023-11-21T09:58:20;12.90;85.57
65854;DHT22;52627;48.838;2.402;2023-11-21T10:00:53;12.96;85.55
65854;DHT22;52627;48.838;2.402;2023-11-21T10:03:24;13.03;85.57
65854;DHT22;52627;48.838;2.402;2023-11-21T10:05:52;13.06;85.50
65854;DHT22;52627;48.838;2.402;2023-11-21T10:08:21;13.09;85.50
65854;DHT22;52627;48.838;2.402;2023-11-21T10:10:51;13.10;85.50
65854;DHT22;52627;48.838;2.402;2023-11-21T10:13:21;13.11;85.50
65854;DHT22;52627;48.838;2.402;2023-11-21T10:15:51;13.11;85.49
65854;DHT22;52627;48.838;2.402;2023-11-21T10:18:20;13.09;85.50
65854;DHT22;52627;48.838;2.402;2023-11-21T10:20:50;13.11;85.50
65854;DHT22;52627;48.838;2.402;2023-11-21T10:23:21;13.13;85.50
65854;DHT22;52627;48.838;2.402;2023-11-21T10:25:51;13.12;85.50
65854;DHT22;52627;48.838;2.402;2023-11-21T10:28:21;13.11;85.50
65854;DHT22;52627;48.838;2.402;2023-11-21T10:30:49;13.11;85.51
65854;DHT22;52627;48.838;2.402;2023-11-21T10:33:17;13.11;85.58
65854;DHT22;52627;48.838;2.402;2023-11-21T10:35:45;13.11;85.60
65854;DHT22;52627;48.838;2.402;2023-11-21T10:38:22;13.12;85.58
65854;DHT22;52627;48.838;2.402;2023-11-21T10:40:54;13.10;85.53
65854;DHT22;52627;48.838;2.402;2023-11-21T10:43:25;13.10;85.55
65854;DHT22;52627;48.838;2.402;2023-11-21T10:45:55;13.10;85.60
65854;DHT22;52627;48.838;2.402;2023-11-21T10:48:27;13.10;85.61
65854;DHT22;52627;48.838;2.402;2023-11-21T10:50:54;13.11;85.60
65854;DHT22;52627;48.838;2.402;2023-11-21T10:53:23;13.09;85.60
65854;DHT22;52627;48.838;2.402;2023-11-21T10:56:00;13.08;85.62
65854;DHT22;52627;48.838;2.402;2023-11-21T10:58:37;13.07;85.70
65854;DHT22;52627;48.838;2.402;2023-11-21T11:01:06;13.06;85.71
65854;DHT22;52627;48.838;2.402;2023-11-21T11:03:35;13.05;85.80
65854;DHT22;52627;48.838;2.402;2023-11-21T11:06:04;13.05;85.80
65854;DHT22;52627;48.838;2.402;2023-11-21T11:08:34;13.04;85.78
65854;DHT22;52627;48.838;2.402;2023-11-21T11:11:03;13.00;85.75
65854;DHT22;52627;48.838;2.402;2023-11-21T11:13:32;13.00;85.80
65854;DHT22;52627;48.838;2.402;2023-11-21T11:16:01;13.03;85.89
65854;DHT22;52627;48.838;2.402;2023-11-21T11:18:29;13.06;85.90
65854;DHT22;52627;48.838;2.402;2023-11-21T11:21:07;13.07;85.91
65854;DHT22;52627;48.838;2.402;2023-11-21T11:30:06;13.15;85.91
65854;DHT22;52627;48.838;2.402;2023-11-21T11:32:43;13.16;85.90
65854;DHT22;52627;48.838;2.402;2023-11-21T11:38:48;13.20;85.89
65854;DHT22;52627;48.838;2.402;2023-11-21T11:41:26;13.19;85.90
65854;DHT22;52627;48.838;2.402;2023-11-21T11:44:00;13.19;85.84
65854;DHT22;52627;48.838;2.402;2023-11-21T11:46:41;13.19;85.81
65854;DHT22;52627;48.838;2.402;2023-11-21T11:49:27;13.20;85.86
65854;DHT22;52627;48.838;2.402;2023-11-21T11:55:12;13.21;85.80
65854;DHT22;52627;48.838;2.402;2023-11-21T11:57:41;13.20;85.82
65854;DHT22;52627;48.838;2.402;2023-11-21T12:00:10;13.20;85.86
65854;DHT22;52627;48.838;2.402;2023-11-21T12:02:46;13.20;85.86
65854;DHT22;52627;48.838;2.402;2023-11-21T12:05:16;13.19;85.88
65854;DHT22;52627;48.838;2.402;2023-11-21T12:07:50;13.19;85.89
65854;DHT22;52627;48.838;2.402;2023-11-21T12:10:23;13.19;85.90
65854;DHT22;52627;48.838;2.402;2023-11-21T12:15:24;13.22;85.90
65854;DHT22;52627;48.838;2.402;2023-11-21T12:17:58;13.25;85.90
65854;DHT22;52627;48.838;2.402;2023-11-21T12:20:26;13.28;85.90
65854;DHT22;52627;48.838;2.402;2023-11-21T12:22:56;13.31;85.87
65854;DHT22;52627;48.838;2.402;2023-11-21T12:25:29;13.33;85.81
65854;DHT22;52627;48.838;2.402;2023-11-21T12:28:04;13.35;85.80
65854;DHT22;52627;48.838;2.402;2023-11-21T12:30:33;13.38;85.77
65854;DHT22;52627;48.838;2.402;2023-11-21T12:33:05;13.41;85.71
65854;DHT22;52627;48.838;2.402;2023-11-21T12:35:36;13.44;85.70
65854;DHT22;52627;48.838;2.402;2023-11-21T12:38:05;13.46;85.66
65854;DHT22;52627;48.838;2.402;2023-11-21T12:40:33;13.47;85.60
65854;DHT22;52627;48.838;2.402;2023-11-21T12:43:01;13.48;85.54
65854;DHT22;52627;48.838;2.402;2023-11-21T12:45:31;13.48;85.48
65854;DHT22;52627;48.838;2.402;2023-11-21T12:48:05;13.49;85.41
65854;DHT22;52627;48.838;2.402;2023-11-21T12:50:39;13.47;85.37
65854;DHT22;52627;48.838;2.402;2023-11-21T12:53:07;13.47;85.31
65854;DHT22;52627;48.838;2.402;2023-11-21T12:55:39;13.47;85.30
65854;DHT22;52627;48.838;2.402;2023-11-21T12:58:09;13.48;85.29
65854;DHT22;52627;48.838;2.402;2023-11-21T13:03:10;13.50;85.23
65854;DHT22;52627;48.838;2.402;2023-11-21T13:05:45;13.52;85.16
65854;DHT22;52627;48.838;2.402;2023-11-21T13:08:20;13.53;85.10
65854;DHT22;52627;48.838;2.402;2023-11-21T13:10:51;13.55;85.09
65854;DHT22;52627;48.838;2.402;2023-11-21T13:13:25;13.59;85.09
65854;DHT22;52627;48.838;2.402;2023-11-21T13:15:57;13.62;85.03
65854;DHT22;52627;48.838;2.402;2023-11-21T13:18:31;13.66;85.00
65854;DHT22;52627;48.838;2.402;2023-11-21T13:21:00;13.69;84.96
65854;DHT22;52627;48.838;2.402;2023-11-21T13:23:34;13.73;84.91
65854;DHT22;52627;48.838;2.402;2023-11-21T13:26:06;13.75;84.83
65854;DHT22;52627;48.838;2.402;2023-11-21T13:28:34;13.76;84.80
65854;DHT22;52627;48.838;2.402;2023-11-21T13:31:05;13.77;84.71
65854;DHT22;52627;48.838;2.402;2023-11-21T13:33:38;13.77;84.61
65854;DHT22;52627;48.838;2.402;2023-11-21T13:36:10;13.77;84.55
65854;DHT22;52627;48.838;2.402;2023-11-21T13:38:39;13.76;84.49
65854;DHT22;52627;48.838;2.402;2023-11-21T13:41:10;13.75;84.45
65854;DHT22;52627;48.838;2.402;2023-11-21T13:43:41;13.73;84.38
65854;DHT22;52627;48.838;2.402;2023-11-21T13:46:15;13.73;84.30
65854;DHT22;52627;48.838;2.402;2023-11-21T13:48:49;13.73;84.30
65854;DHT22;52627;48.838;2.402;2023-11-21T13:51:24;13.76;84.23
65854;DHT22;52627;48.838;2.402;2023-11-21T13:54:12;13.77;84.25
65854;DHT22;52627;48.838;2.402;2023-11-21T13:56:41;13.78;84.18
65854;DHT22;52627;48.838;2.402;2023-11-21T13:59:12;13.79;84.10
65854;DHT22;52627;48.838;2.402;2023-11-21T14:01:55;13.79;84.03
65854;DHT22;52627;48.838;2.402;2023-11-21T14:04:28;13.79;84.03
65854;DHT22;52627;48.838;2.402;2023-11-21T14:07:07;13.78;83.91
65854;DHT22;52627;48.838;2.402;2023-11-21T14:09:53;13.77;83.89
65854;DHT22;52627;48.838;2.402;2023-11-21T14:12:21;13.77;83.90
65854;DHT22;52627;48.838;2.402;2023-11-21T14:14:48;13.76;83.80
65854;DHT22;52627;48.838;2.402;2023-11-21T14:17:17;13.74;83.71
65854;DHT22;52627;48.838;2.402;2023-11-21T14:19:44;13.73;83.70
65854;DHT22;52627;48.838;2.402;2023-11-21T14:22:12;13.71;83.63
65854;DHT22;52627;48.838;2.402;2023-11-21T14:24:40;13.69;83.60
65854;DHT22;52627;48.838;2.402;2023-11-21T14:27:13;13.69;83.60
65854;DHT22;52627;48.838;2.402;2023-11-21T14:29:42;13.68;83.60
65854;DHT22;52627;48.838;2.402;2023-11-21T14:32:12;13.68;83.61
65854;DHT22;52627;48.838;2.402;2023-11-21T14:34:40;13.68;83.60
65854;DHT22;52627;48.838;2.402;2023-11-21T14:37:10;13.68;83.60
65854;DHT22;52627;48.838;2.402;2023-11-21T14:39:41;13.68;83.60
65854;DHT22;52627;48.838;2.402;2023-11-21T14:42:13;13.68;83.60
65854;DHT22;52627;48.838;2.402;2023-11-21T14:44:42;13.69;83.59
65854;DHT22;52627;48.838;2.402;2023-11-21T14:47:11;13.69;83.60
65854;DHT22;52627;48.838;2.402;2023-11-21T14:49:44;13.70;83.52
65854;DHT22;52627;48.838;2.402;2023-11-21T14:52:24;13.69;83.50
65854;DHT22;52627;48.838;2.402;2023-11-21T14:55:03;13.68;83.50
65854;DHT22;52627;48.838;2.402;2023-11-21T14:57:48;13.69;83.50
65854;DHT22;52627;48.838;2.402;2023-11-21T15:00:18;13.67;83.46
65854;DHT22;52627;48.838;2.402;2023-11-21T15:03:03;13.66;83.36
65854;DHT22;52627;48.838;2.402;2023-11-21T15:05:32;13.64;83.33
65854;DHT22;52627;48.838;2.402;2023-11-21T15:08:02;13.65;83.26
65854;DHT22;52627;48.838;2.402;2023-11-21T15:10:47;13.62;83.15
65854;DHT22;52627;48.838;2.402;2023-11-21T15:13:21;13.61;83.05
65854;DHT22;52627;48.838;2.402;2023-11-21T15:15:51;13.60;82.98
65854;DHT22;52627;48.838;2.402;2023-11-21T15:18:22;13.59;82.97
65854;DHT22;52627;48.838;2.402;2023-11-21T15:20:50;13.59;82.98
65854;DHT22;52627;48.838;2.402;2023-11-21T15:23:18;13.57;82.90
65854;DHT22;52627;48.838;2.402;2023-11-21T15:25:46;13.57;82.80
65854;DHT22;52627;48.838;2.402;2023-11-21T15:28:14;13.56;82.71
65854;DHT22;52627;48.838;2.402;2023-11-21T15:30:41;13.56;82.70
65854;DHT22;52627;48.838;2.402;2023-11-21T15:33:09;13.54;82.62
65854;DHT22;52627;48.838;2.402;2023-11-21T15:35:37;13.54;82.66
65854;DHT22;52627;48.838;2.402;2023-11-21T15:38:08;13.53;82.69
65854;DHT22;52627;48.838;2.402;2023-11-21T15:40:36;13.52;82.60
65854;DHT22;52627;48.838;2.402;2023-11-21T15:43:04;13.51;82.59
65854;DHT22;52627;48.838;2.402;2023-11-21T15:45:34;13.50;82.54
65854;DHT22;52627;48.838;2.402;2023-11-21T15:48:01;13.51;82.57
65854;DHT22;52627;48.838;2.402;2023-11-21T15:50:29;13.50;82.53
65854;DHT22;52627;48.838;2.402;2023-11-21T15:52:59;13.49;82.50
65854;DHT22;52627;48.838;2.402;2023-11-21T15:55:26;13.49;82.50
65854;DHT22;52627;48.838;2.402;2023-11-21T15:57:54;13.49;82.49
65854;DHT22;52627;48.838;2.402;2023-11-21T16:00:21;13.47;82.50
65854;DHT22;52627;48.838;2.402;2023-11-21T16:02:51;13.44;82.54
65854;DHT22;52627;48.838;2.402;2023-11-21T16:05:22;13.44;82.60